Pitt Meadows, British Columbia

03:03 PST le 06 Mars 2015 (GMT -0800)
Pitt Meadows Chez Douglas | Change Station
CLOSE
Current Station
Stations météorologiques personnelles
Location: Pitt Meadows, BRITISH COLUMBIA
Altitude: 66 ft
Stations météo à proximité

Alt. 66 ft 49.22 °N, 122.69 °W | Updated 14 minutes ago

Scattered Clouds
Nuages épars
41.5 ° F
Paraît 42 ° F
N
2.2
Vent Variable Vent de SO

Aujourd'hui
Haut(e) -- | Bas -- ° F
--% Risque de précip.
Hier
Haut(e) -- | Bas -- ° F
Precip. -- pouce
6:43 AM 6:01 PM
Pleine lune, 100% visible
Pression 30.43 pouce
Visibilité 10.0 Miles terrestres
Nuages Nuages épars 24000 ft
Refroidissement éolien 42 ° F
Point de rosée 35 ° F
Humidité 78%
Précipitations pouce
Profondeur de la couche neigeuse Non disponible.
UV 0 sur 12
Pollen Non disponible.
Qualité de l'air Non disponible.
Flu Activity Non disponible.
METAR CYXX 061000Z 01002KT 10SM SCT240 03/01 A3042 RMK CI3 SLP303

More Conditions Fewer Conditions

Pression 30.43 pouce
Visibilité 10.0 Miles terrestres
Nuages Nuages épars 24000 ft
Refroidissement éolien 42 ° F
Point de rosée 35 ° F
Humidité 78%
Précipitations pouce
Profondeur de la couche neigeuse Non disponible.
UV 0 sur 12
Pollen Non disponible.
Qualité de l'air Non disponible.
Flu Activity Non disponible.
METAR CYXX 061000Z 01002KT 10SM SCT240 03/01 A3042 RMK CI3 SLP303

More Conditions Fewer Conditions

10-Day Weather Forecast

Almanac

Astronomie

Mar. 06, 2015 Lever Coucher
Temps réel
Crépuscule civil
Crépuscule nautique
Crépuscule astronomique
Lune
Durée de lumière visible
Longueur du jour
Tomorrow will be .
, % of the Moon is Illuminated

Extrêmes aujourd'hui

Country Highs Country Lows

Community

WunderPhotos

Upload Photos

1,803,223 Photos téléchargées !

WunderBlogs® & News

Nearby

Qualité de l'air

  Qualité de l'air Indice de la qualité de l'air Polluant
Not available.

Épaisseur de neige

Station Depth Altitude

Activité sismique

Ville Distance Mag. Time & Date
Minimum magnitude displayed is 2.5.

Températures des eaux côtières

Lieu Température

Stations météo à proximité